Time;durP1;ratioP1;P1;durP2;ratioP2;P2;SDS_P1;SDS_P2;PMS_P1;PMS_P2;Temp;Humidity;BMP_temperature;BMP_pressure;BME280_temperature;BME280_humidity;BME280_pressure;Samples;Min_cycle;Max_cycle;Signal;HPM_P1;HPM_P2
2022/10/17 00:02:34;;;;;;;;;;;;;;;;;;;;;
2022/10/17 00:05:41;;;;;;;8.63;4.03;;;;;;;5.40;55.54;101171.31;4999320;28;20485;-78
2022/10/17 00:08:08;;;;;;;6.60;3.95;;;;;;;5.92;54.50;101256.56;5012394;28;20052;-80
2022/10/17 00:10:35;;;;;;;8.93;4.28;;;;;;;5.79;55.31;101229.44;5014181;28;20047;-78
2022/10/17 00:13:05;;;;;;;7.10;4.47;;;;;;;5.85;54.85;101251.19;5011114;28;20048;-79
2022/10/17 00:15:32;;;;;;;6.55;4.00;;;;;;;5.78;55.28;101241.44;4978029;28;20038;-79
2022/10/17 00:18:02;;;;;;;7.65;4.28;;;;;;;5.76;54.92;101242.25;4994487;28;20448;-78
2022/10/17 00:20:31;;;;;;;6.05;3.95;;;;;;;5.76;55.37;101248.25;4994974;28;20049;-78
2022/10/17 00:22:59;;;;;;;5.40;4.18;;;;;;;5.78;55.25;101254.38;4992763;28;20053;-78
2022/10/17 00:25:25;;;;;;;8.65;4.45;;;;;;;5.74;55.04;101244.75;4990116;28;20041;-79
2022/10/17 00:27:55;;;;;;;6.57;4.22;;;;;;;5.72;55.02;101242.13;4964515;28;20574;-78
2022/10/17 00:30:25;;;;;;;7.82;4.30;;;;;;;5.71;55.16;101236.94;4987284;28;20037;-78
2022/10/17 00:32:51;;;;;;;5.18;4.07;;;;;;;5.74;55.67;101234.41;5010214;28;20037;-79
2022/10/17 00:35:20;;;;;;;6.13;4.13;;;;;;;5.72;56.06;101234.38;4994213;28;20505;-78
2022/10/17 00:37:48;;;;;;;5.63;4.28;;;;;;;5.62;55.08;101206.50;5011770;28;20049;-78
2022/10/17 00:40:14;;;;;;;7.70;4.20;;;;;;;5.30;55.88;101148.59;5029361;28;20184;-79
2022/10/17 00:42:40;;;;;;;8.10;3.97;;;;;;;5.67;55.98;101204.94;4992551;28;20175;-79
2022/10/17 00:45:26;;;;;;;6.75;4.40;;;;;;;5.75;55.93;101212.06;5030195;28;20042;-78
2022/10/17 00:48:04;;;;;;;6.82;3.97;;;;;;;5.70;56.11;101193.84;4994627;28;20041;-78
2022/10/17 00:50:34;;;;;;;6.90;4.30;;;;;;;5.72;55.66;101197.34;4988424;28;20414;-77
2022/10/17 00:53:04;;;;;;;6.28;4.20;;;;;;;5.73;55.92;101204.28;4993498;28;20045;-79
2022/10/17 00:55:35;;;;;;;6.30;3.95;;;;;;;5.80;55.84;101205.34;5006778;28;20107;-77
2022/10/17 00:58:08;;;;;;;5.88;3.80;;;;;;;5.67;55.76;101181.69;4978514;28;20041;-80
2022/10/17 01:00:37;;;;;;;7.13;4.00;;;;;;;5.76;55.42;101200.91;5010492;28;20048;-79
2022/10/17 01:03:03;;;;;;;5.95;4.10;;;;;;;5.84;55.62;101186.56;5027206;28;20451;-78
2022/10/17 01:05:30;;;;;;;9.15;4.65;;;;;;;5.85;56.07;101188.28;5029145;28;20036;-79
2022/10/17 01:07:56;;;;;;;6.93;4.00;;;;;;;5.72;55.47;101167.22;4995061;28;20107;-78
2022/10/17 01:10:29;;;;;;;5.97;3.58;;;;;;;5.86;55.95;101179.69;5012519;28;20033;-78
2022/10/17 01:13:10;;;;;;;7.28;3.95;;;;;;;5.80;56.22;101170.06;5007790;28;20239;-80
2022/10/17 01:15:56;;;;;;;5.70;3.75;;;;;;;5.88;56.12;101178.03;5029357;28;20107;-80
2022/10/17 01:18:28;;;;;;;7.20;3.85;;;;;;;5.88;55.63;101171.19;4995493;28;20041;-79
2022/10/17 01:21:15;;;;;;;7.38;4.38;;;;;;;5.90;55.67;101162.63;4979809;28;20037;-80
2022/10/17 01:24:09;;;;;;;8.15;4.20;;;;;;;5.92;55.98;101160.97;5030624;28;20041;-80
2022/10/17 01:27:13;;;;;;;5.72;3.80;;;;;;;5.88;55.60;101157.38;5005894;28;20045;-80
2022/10/17 01:30:02;;;;;;;8.43;4.65;;;;;;;5.65;55.50;101131.69;5020792;28;20524;-79
2022/10/17 01:32:38;;;;;;;6.07;3.88;;;;;;;5.85;55.70;101154.69;5010409;28;20072;-78
2022/10/17 01:35:24;;;;;;;6.78;3.33;;;;;;;5.84;55.45;101145.22;4978831;28;20037;-77
2022/10/17 01:38:05;;;;;;;7.57;4.28;;;;;;;5.84;55.87;101146.09;5010103;28;20068;-80
2022/10/17 01:40:42;;;;;;;8.23;4.32;;;;;;;5.76;55.98;101141.50;4978238;28;20069;-78
2022/10/17 01:43:38;;;;;;;8.13;4.07;;;;;;;5.81;55.92;101140.81;5010105;28;20060;-78
2022/10/17 01:46:18;;;;;;;8.50;5.18;;;;;;;5.73;55.87;101119.03;4992121;28;20450;-79
2022/10/17 01:48:45;;;;;;;6.43;3.80;;;;;;;5.82;56.18;101136.53;5032875;28;20037;-80
2022/10/17 01:51:22;;;;;;;7.03;3.72;;;;;;;5.81;56.00;101124.44;5013922;28;20099;-78
2022/10/17 01:54:24;;;;;;;6.40;3.72;;;;;;;5.80;56.06;101133.03;4991837;28;20245;-78
2022/10/17 01:57:40;;;;;;;7.25;3.78;;;;;;;5.80;56.49;101117.53;4990095;28;20065;-78
2022/10/17 02:00:19;;;;;;;5.55;3.70;;;;;;;4.69;56.25;100942.75;4994863;28;20125;-78
2022/10/17 02:02:55;;;;;;;7.55;4.40;;;;;;;5.69;56.33;101083.59;5009479;28;20060;-78
2022/10/17 02:05:26;;;;;;;;;;;;;;;5.78;55.63;101109.72;5013455;28;20207;-78
2022/10/17 02:08:06;;;;;;;8.25;4.13;;;;;;;4.70;55.70;100913.56;4996323;28;19928;-81
2022/10/17 02:10:47;;;;;;;5.22;3.88;;;;;;;5.78;55.90;101099.38;5014660;28;20048;-79
2022/10/17 02:14:20;;;;;;;6.32;3.72;;;;;;;5.80;56.06;101109.78;4999826;28;20041;-81
2022/10/17 02:17:24;;;;;;;5.35;3.70;;;;;;;5.79;55.89;101115.78;4979686;28;20052;-81
2022/10/17 02:20:15;;;;;;;6.13;3.58;;;;;;;5.72;55.99;101099.22;4960661;28;20056;-79
2022/10/17 02:22:56;;;;;;;6.20;3.70;;;;;;;5.47;55.81;101051.03;4997721;28;20048;-78
2022/10/17 02:25:34;;;;;;;7.13;4.07;;;;;;;5.73;55.77;101095.78;5029961;28;20124;-78
2022/10/17 02:28:01;;;;;;;8.23;4.05;;;;;;;5.81;56.30;101101.19;5012009;28;20045;-80
2022/10/17 02:30:37;;;;;;;5.95;3.70;;;;;;;5.80;56.39;101089.97;5011790;28;20041;-79
2022/10/17 02:33:15;;;;;;;6.03;3.38;;;;;;;5.85;56.05;101090.09;5010414;28;20041;-79
2022/10/17 02:35:48;;;;;;;5.93;3.72;;;;;;;5.78;56.61;101098.50;4995736;28;20046;-79
2022/10/17 02:38:15;;;;;;;5.50;3.50;;;;;;;5.40;55.84;101035.38;4979063;28;20057;-79
2022/10/17 02:40:45;;;;;;;7.57;3.63;;;;;;;5.66;55.94;101074.03;4975164;28;20038;-80
2022/10/17 02:43:13;;;;;;;7.97;3.83;;;;;;;5.82;56.13;101098.66;5009910;28;20049;-79
2022/10/17 02:45:39;;;;;;;5.68;4.15;;;;;;;5.72;56.05;101084.56;5010747;28;20734;-78
2022/10/17 02:48:32;;;;;;;7.07;3.65;;;;;;;5.74;56.50;101079.44;5011103;28;20385;-78
2022/10/17 02:51:17;;;;;;;6.07;3.78;;;;;;;5.86;55.84;101089.28;4985108;28;20072;-78
2022/10/17 02:53:57;;;;;;;5.25;3.95;;;;;;;5.78;55.73;101072.69;5029116;28;20090;-78
2022/10/17 02:56:32;;;;;;;6.68;3.92;;;;;;;5.78;56.62;101075.25;5012013;28;20052;-80
2022/10/17 02:59:00;;;;;;;7.63;4.13;;;;;;;5.85;56.26;101087.53;5011421;28;20504;-79
2022/10/17 03:01:28;;;;;;;6.55;4.05;;;;;;;5.64;56.46;101049.88;5011847;28;20155;-77
2022/10/17 03:04:06;;;;;;;7.07;4.25;;;;;;;5.61;56.59;101042.06;4994097;28;20033;-79
2022/10/17 03:06:37;;;;;;;8.07;3.80;;;;;;;5.43;55.85;101001.88;5006168;28;20041;-78
2022/10/17 03:09:03;;;;;;;7.10;4.33;;;;;;;5.78;56.65;101052.00;4994986;28;20631;-80
2022/10/17 03:11:29;;;;;;;6.38;4.00;;;;;;;5.68;55.79;101033.63;5007134;28;20033;-79
2022/10/17 03:13:55;;;;;;;7.30;4.40;;;;;;;5.73;56.40;101046.72;4998617;28;20140;-80
2022/10/17 03:16:23;;;;;;;6.25;3.90;;;;;;;5.84;56.81;101062.53;5036993;28;20068;-78
2022/10/17 03:18:49;;;;;;;6.80;4.47;;;;;;;5.77;56.18;101052.84;4996221;28;20174;-79
2022/10/17 03:21:16;;;;;;;5.88;3.85;;;;;;;5.83;56.07;101058.22;4978048;28;20045;-81
2022/10/17 03:23:42;;;;;;;7.65;4.03;;;;;;;5.80;56.16;101053.81;4998488;28;20095;-78
2022/10/17 03:26:08;;;;;;;7.07;4.13;;;;;;;5.72;56.41;101035.50;4994886;28;21364;-79
2022/10/17 03:28:35;;;;;;;6.43;4.72;;;;;;;5.75;56.67;101039.00;4994906;28;20504;-78
2022/10/17 03:31:09;;;;;;;5.10;3.83;;;;;;;5.63;56.17;101017.13;4974796;28;20435;-80
2022/10/17 03:33:36;;;;;;;8.27;4.28;;;;;;;5.63;56.57;101024.00;5024620;28;20559;-80
2022/10/17 03:36:13;;;;;;;10.15;4.72;;;;;;;5.50;56.79;101010.72;5009063;28;20052;-81
2022/10/17 03:38:40;;;;;;;6.65;4.07;;;;;;;5.51;56.49;101015.06;4990943;28;20091;-80
2022/10/17 03:41:12;;;;;;;7.30;4.00;;;;;;;5.65;56.33;101024.94;4994823;28;20092;-79
2022/10/17 03:43:41;;;;;;;6.53;3.85;;;;;;;5.63;56.88;101017.13;5010715;28;20052;-78
2022/10/17 03:46:07;;;;;;;7.13;4.00;;;;;;;5.69;56.35;101027.66;4994245;28;20038;-80
2022/10/17 03:48:35;;;;;;;7.63;4.05;;;;;;;5.54;56.51;101002.22;5018312;28;20071;-82
2022/10/17 03:51:08;;;;;;;7.15;4.07;;;;;;;5.66;57.10;101012.06;4993393;28;20045;-80
2022/10/17 03:53:40;;;;;;;5.75;3.95;;;;;;;5.40;56.84;100973.41;5006790;28;21047;-81
2022/10/17 03:56:23;;;;;;;7.20;3.97;;;;;;;5.60;57.58;100993.81;4997196;28;20044;-83
2022/10/17 03:59:25;;;;;;;5.65;4.43;;;;;;;4.76;56.91;100862.19;4999595;28;20041;-83
2022/10/17 04:02:11;;;;;;;6.03;4.00;;;;;;;5.42;56.78;100953.66;4998629;28;20049;-82
2022/10/17 04:04:44;;;;;;;6.45;3.67;;;;;;;5.24;56.72;100929.88;4997971;28;20033;-80
2022/10/17 04:07:23;;;;;;;5.78;4.10;;;;;;;5.20;56.44;100912.53;4995211;28;20048;-80
2022/10/17 04:09:54;;;;;;;6.80;4.03;;;;;;;5.68;56.70;100994.91;4996903;28;20100;-82
2022/10/17 04:12:21;;;;;;;5.75;3.80;;;;;;;5.80;56.61;100998.69;5013192;28;20037;-82
2022/10/17 04:14:56;;;;;;;6.72;4.07;;;;;;;5.56;56.51;100953.22;5012219;28;20497;-81
2022/10/17 04:20:45;;;;;;;7.25;4.22;;;;;;;5.62;56.83;100948.25;5012772;28;20133;-80
2022/10/17 04:23:12;;;;;;;6.63;3.97;;;;;;;6.04;56.34;101001.16;5006865;28;20102;-81
2022/10/17 04:25:38;;;;;;;6.45;4.20;;;;;;;6.08;56.88;101000.41;4994250;28;20116;-82
2022/10/17 04:28:07;;;;;;;6.10;4.00;;;;;;;6.14;56.98;100994.53;5012987;28;20135;-78
2022/10/17 04:30:39;;;;;;;6.90;4.20;;;;;;;6.08;56.31;100973.66;5028093;28;20049;-80
2022/10/17 04:33:10;;;;;;;6.50;3.95;;;;;;;5.95;56.09;100931.97;4996177;28;20068;-79
2022/10/17 04:35:37;;;;;;;11.00;4.22;;;;;;;6.08;56.14;100943.56;4993292;28;20071;-79
2022/10/17 04:38:05;;;;;;;8.25;4.38;;;;;;;6.09;56.29;100934.06;4991380;28;20148;-80
2022/10/17 04:40:44;;;;;;;12.10;4.20;;;;;;;6.01;55.94;100923.53;5007914;28;20045;-84
2022/10/17 04:43:34;;;;;;;5.25;4.05;;;;;;;5.69;56.17;100854.59;4977014;28;20459;-81
2022/10/17 04:49:58;;;;;;;8.52;4.07;;;;;;;5.71;55.88;100873.59;4994958;28;20390;-82
2022/10/17 04:52:30;;;;;;;7.20;4.07;;;;;;;6.34;55.78;100953.72;5026136;28;20072;-81
2022/10/17 04:54:59;;;;;;;7.18;3.88;;;;;;;6.54;55.87;100976.66;5009654;28;20060;-78
2022/10/17 04:57:26;;;;;;;6.45;3.70;;;;;;;6.53;56.03;100947.31;5021739;28;20453;-80
2022/10/17 05:00:01;;;;;;;7.38;4.70;;;;;;;6.30;55.83;100901.06;4991705;28;20163;-79
2022/10/17 05:02:48;;;;;;;7.47;3.85;;;;;;;6.77;55.71;100951.38;4985669;28;20079;-80
2022/10/17 05:05:17;;;;;;;6.85;4.18;;;;;;;6.77;55.73;100947.09;5010852;28;20037;-80
2022/10/17 05:07:48;;;;;;;7.22;4.07;;;;;;;6.79;55.13;100931.59;5024257;28;20041;-79
2022/10/17 05:10:19;;;;;;;7.13;3.67;;;;;;;6.68;55.11;100886.50;5011408;28;20649;-80
2022/10/17 05:12:49;;;;;;;8.10;4.38;;;;;;;6.78;54.79;100899.69;4993756;28;20128;-79
2022/10/17 05:15:17;;;;;;;7.63;4.40;;;;;;;6.83;55.27;100910.13;4996050;28;20152;-79
2022/10/17 05:18:05;;;;;;;8.77;4.03;;;;;;;7.00;55.06;100926.06;5016097;28;20090;-79
2022/10/17 05:20:33;;;;;;;8.20;4.63;;;;;;;6.98;54.81;100921.69;4992351;28;20528;-80
2022/10/17 05:23:24;;;;;;;7.85;4.20;;;;;;;6.06;54.59;100763.47;4997267;28;20099;-81
2022/10/17 05:29:42;;;;;;;7.85;4.38;;;;;;;7.16;54.29;100914.38;4989260;28;20139;-82
2022/10/17 05:32:26;;;;;;;7.72;4.28;;;;;;;6.33;54.42;100786.53;5007345;28;20056;-81
2022/10/17 05:38:16;;;;;;;5.70;4.10;;;;;;;6.54;54.28;100800.81;5006234;28;20143;-79
2022/10/17 05:41:09;;;;;;;7.60;4.20;;;;;;;6.80;54.42;100852.28;4985897;28;20714;-79
2022/10/17 05:43:46;;;;;;;10.13;4.10;;;;;;;6.69;54.32;100795.13;4979894;28;20045;-80
2022/10/17 05:46:42;;;;;;;6.68;4.53;;;;;;;7.54;53.87;100916.94;5027767;28;20041;-79
2022/10/17 05:49:29;;;;;;;7.95;4.25;;;;;;;6.89;53.83;100787.78;5005456;28;20045;-81
2022/10/17 05:52:01;;;;;;;8.55;3.92;;;;;;;6.97;53.45;100813.81;5023760;28;20126;-78
2022/10/17 05:54:34;;;;;;;8.70;3.95;;;;;;;6.88;53.51;100802.44;4993734;28;20045;-80
2022/10/17 06:00:22;;;;;;;6.72;4.18;;;;;;;7.54;53.18;100836.63;4991804;28;20041;-81
2022/10/17 06:03:04;;;;;;;6.40;4.03;;;;;;;7.91;53.14;100852.03;4990241;28;20048;-79
2022/10/17 06:05:44;;;;;;;8.05;4.43;;;;;;;7.78;52.47;100788.72;5004360;28;20103;-79
2022/10/17 06:08:17;;;;;;;9.23;4.07;;;;;;;8.50;52.12;100826.25;5038023;28;20157;-80
2022/10/17 06:11:04;;;;;;;6.32;3.78;;;;;;;7.99;51.47;100707.00;5003120;28;20887;-81
2022/10/17 06:14:14;;;;;;;9.75;4.28;;;;;;;7.98;51.30;100713.91;5012395;28;20126;-82
2022/10/17 06:17:11;;;;;;;;;;;;;;;;;;;;;
2022/10/17 06:20:27;;;;;;;8.37;4.33;;;;;;;8.88;50.58;100828.56;4994863;28;20080;-82
2022/10/17 06:22:57;;;;;;;5.57;3.95;;;;;;;8.76;50.68;100805.91;5006558;28;20303;-81
2022/10/17 06:30:28;;;;;;;7.13;4.35;;;;;;;9.15;50.09;100856.63;5015186;28;20041;-82
2022/10/17 06:33:19;;;;;;;7.50;4.13;;;;;;;8.69;49.98;100765.13;4996949;28;20072;-81
2022/10/17 06:36:39;;;;;;;7.32;3.72;;;;;;;9.27;49.96;100861.13;5026155;23;20144;-83
2022/10/17 06:40:04;;;;;;;;;;;;;;;;;;;;;
2022/10/17 06:43:29;;;;;;;7.57;3.97;;;;;;;8.26;49.67;100744.59;5034697;28;20041;-81
2022/10/17 06:46:25;;;;;;;6.47;4.25;;;;;;;8.92;50.31;100858.91;5051011;28;20104;-81
2022/10/17 06:49:03;;;;;;;7.75;4.18;;;;;;;8.77;50.18;100862.16;5025151;28;20049;-82
2022/10/17 06:52:33;;;;;;;6.82;4.47;;;;;;;7.99;50.67;100749.34;5051370;28;20037;-80
2022/10/17 06:55:28;;;;;;;;;;;;;;;8.56;50.65;100850.59;5051997;28;20052;-82
2022/10/17 07:01:53;;;;;;;11.18;4.22;;;;;;;8.50;50.83;100808.09;5025549;28;20068;-80
2022/10/17 07:04:31;;;;;;;7.38;4.63;;;;;;;8.30;50.71;100751.56;5016147;28;20094;-82
2022/10/17 07:07:06;;;;;;;9.73;3.95;;;;;;;7.94;50.40;100677.53;5014368;28;20048;-81
2022/10/17 07:09:37;;;;;;;11.38;4.53;;;;;;;7.93;50.38;100655.06;5032318;28;20045;-82
2022/10/17 07:12:36;;;;;;;7.53;4.07;;;;;;;8.79;50.49;100798.16;5032125;28;20506;-83
2022/10/17 07:15:04;;;;;;;10.93;4.00;;;;;;;8.05;50.31;100647.50;5004329;28;20064;-86
2022/10/17 07:18:05;;;;;;;9.57;4.25;;;;;;;8.69;50.04;100732.28;5013629;28;20048;-82
2022/10/17 07:20:52;;;;;;;9.18;4.40;;;;;;;8.29;49.81;100622.75;5024623;28;20040;-80
2022/10/17 07:24:09;;;;;;;11.15;4.45;;;;;;;9.13;49.40;100785.63;5033937;28;20045;-82
2022/10/17 07:27:11;;;;;;;9.27;4.38;;;;;;;9.08;49.06;100758.72;5038198;28;20520;-82
2022/10/17 07:29:37;;;;;;;6.82;4.07;;;;;;;9.02;49.46;100753.47;5027906;28;20044;-80
2022/10/17 07:32:32;;;;;;;10.85;3.83;;;;;;;8.92;49.33;100710.97;5026494;28;20581;-82
2022/10/17 07:34:58;;;;;;;5.53;3.47;;;;;;;9.20;48.65;100726.84;5034754;28;20041;-82
2022/10/17 07:37:43;;;;;;;7.00;4.05;;;;;;;9.52;48.47;100793.00;4996891;28;20053;-81
2022/10/17 07:41:18;;;;;;;5.47;3.55;;;;;;;8.49;48.71;100584.13;5015950;28;20879;-80
2022/10/17 07:44:49;;;;;;;5.63;3.72;;;;;;;8.73;48.74;100626.81;4999953;28;20045;-84
2022/10/17 07:48:04;;;;;;;7.70;4.10;;;;;;;9.57;48.51;100758.44;4999416;28;20038;-82
2022/10/17 07:50:57;;;;;;;6.45;3.70;;;;;;;8.68;49.10;100621.56;4996787;28;20042;-83
2022/10/17 07:53:50;;;;;;;12.98;4.10;;;;;;;9.69;48.88;100812.28;5011927;28;20048;-84
2022/10/17 07:56:41;;;;;;;7.13;4.15;;;;;;;9.15;48.83;100705.16;5021342;28;20174;-79
2022/10/17 08:03:32;;;;;;;10.80;4.05;;;;;;;9.30;48.92;100717.44;4971275;28;20038;-79
2022/10/17 08:06:00;;;;;;;9.52;3.83;;;;;;;9.44;49.19;100738.38;5013092;28;20427;-82
2022/10/17 08:08:29;;;;;;;9.15;4.20;;;;;;;9.48;49.01;100740.16;5007457;28;20029;-79
2022/10/17 08:11:05;;;;;;;5.35;4.05;;;;;;;9.56;49.08;100767.09;4988962;28;20041;-80
2022/10/17 08:13:36;;;;;;;10.57;4.32;;;;;;;9.62;49.48;100792.28;5008212;28;20053;-79
2022/10/17 08:16:09;;;;;;;10.27;4.10;;;;;;;9.35;50.04;100749.53;4980628;28;20037;-78
2022/10/17 08:18:35;;;;;;;8.50;4.18;;;;;;;9.44;50.17;100770.44;5025684;28;20048;-80
2022/10/17 08:21:07;;;;;;;6.68;4.03;;;;;;;9.42;50.59;100771.25;5006501;28;20543;-79
2022/10/17 08:23:41;;;;;;;8.27;4.35;;;;;;;9.59;50.70;100805.22;5002154;28;20148;-80
2022/10/17 08:26:34;;;;;;;8.77;3.97;;;;;;;8.64;50.50;100637.94;5027778;28;20033;-87
2022/10/17 08:29:03;;;;;;;8.63;4.35;;;;;;;9.23;50.50;100711.31;4982678;28;20390;-79
2022/10/17 08:31:34;;;;;;;11.68;4.10;;;;;;;9.53;50.62;100777.44;4988079;28;20072;-82
2022/10/17 08:34:06;;;;;;;7.43;4.20;;;;;;;9.30;51.10;100730.41;4994906;28;20037;-80
2022/10/17 08:36:42;;;;;;;7.22;3.83;;;;;;;9.41;51.27;100736.63;5008480;28;20043;-79
2022/10/17 08:39:08;;;;;;;7.80;3.60;;;;;;;9.62;51.79;100746.34;4991659;28;20058;-79
2022/10/17 08:41:46;;;;;;;7.40;4.15;;;;;;;9.76;51.66;100735.22;5006966;28;20509;-79
2022/10/17 08:44:35;;;;;;;14.23;4.57;;;;;;;9.67;51.29;100725.63;5011955;28;20041;-80
2022/10/17 08:47:50;;;;;;;11.18;4.13;;;;;;;9.66;51.09;100731.69;5001626;28;20056;-79
2022/10/17 08:54:53;;;;;;;8.45;3.83;;;;;;;9.11;50.77;100673.09;4947953;29;20463;-81
2022/10/17 08:57:27;;;;;;;14.20;3.80;;;;;;;9.04;50.80;100672.16;4930895;28;20561;-81
2022/10/17 09:00:09;;;;;;;7.35;4.20;;;;;;;8.45;50.90;100543.41;4996164;28;20038;-82
2022/10/17 09:03:28;;;;;;;9.80;4.05;;;;;;;8.67;51.05;100644.88;4997047;28;20037;-82
2022/10/17 09:07:05;;;;;;;7.40;4.30;;;;;;;9.22;51.76;100768.44;4978243;28;20064;-84
2022/10/17 09:11:00;;;;;;;10.60;4.72;;;;;;;9.13;52.17;100766.59;4976663;28;20050;-80
2022/10/17 09:14:00;;;;;;;7.18;4.38;;;;;;;8.04;52.17;100583.53;5007592;28;20148;-81
2022/10/17 09:17:07;;;;;;;15.82;4.35;;;;;;;8.95;52.65;100780.19;4995876;28;20080;-80
2022/10/17 09:20:05;;;;;;;9.27;4.50;;;;;;;8.86;53.33;100773.16;4981317;28;20052;-83
2022/10/17 09:22:49;;;;;;;9.82;4.53;;;;;;;8.22;53.54;100675.38;5005036;28;20092;-79
2022/10/17 09:25:27;;;;;;;9.57;5.25;;;;;;;8.23;53.90;100695.28;5001954;28;20049;-81
2022/10/17 09:28:09;;;;;;;7.85;5.25;;;;;;;8.28;54.87;100735.97;5024415;28;20037;-81
2022/10/17 09:30:52;;;;;;;8.80;5.35;;;;;;;8.35;55.90;100772.41;5023689;28;20037;-83
2022/10/17 09:33:59;;;;;;;7.93;5.72;;;;;;;8.14;56.67;100771.19;5023087;28;20041;-80
2022/10/17 09:37:30;;;;;;;7.95;5.30;;;;;;;7.82;57.57;100774.09;5004679;28;20092;-80
2022/10/17 09:40:47;;;;;;;11.88;6.57;;;;;;;6.82;58.97;100698.81;4923335;29;20589;-83
2022/10/17 09:48:09;;;;;;;16.73;6.55;;;;;;;7.03;61.53;100767.38;4931281;28;20137;-82
2022/10/17 09:51:54;;;;;;;10.65;6.80;;;;;;;7.06;62.77;100782.97;4919488;28;20062;-85
2022/10/17 09:59:21;;;;;;;12.45;6.80;;;;;;;6.97;64.22;100780.19;4970414;28;20115;-83
2022/10/17 10:03:14;;;;;;;12.25;7.50;;;;;;;5.84;64.71;100579.47;4967342;28;20096;-82
2022/10/17 10:07:08;;;;;;;11.02;6.50;;;;;;;5.93;65.53;100584.00;4957084;28;20039;-83
2022/10/17 10:18:38;;;;;;;12.55;6.20;;;;;;;6.58;66.74;100650.91;4968777;28;20634;-83
2022/10/17 10:21:19;;;;;;;8.75;6.30;;;;;;;7.09;66.70;100736.47;4998914;28;20119;-85
2022/10/17 10:25:37;;;;;;;10.63;6.20;;;;;;;7.27;67.33;100729.91;5024578;28;20057;-83
2022/10/17 10:28:46;;;;;;;;;;;;;;;;;;;;;
2022/10/17 10:31:13;;;;;;;7.93;6.03;;;;;;;7.04;66.74;100608.69;4939362;29;20044;-84
2022/10/17 10:33:47;;;;;;;9.20;5.80;;;;;;;6.57;67.06;100511.22;5014587;28;20054;-84
2022/10/17 10:40:48;;;;;;;11.25;5.60;;;;;;;7.73;67.12;100667.69;5151832;22;20057;-84
2022/10/17 10:45:22;;;;;;;9.75;5.70;;;;;;;7.11;67.00;100560.47;5031591;28;20109;-83
2022/10/17 11:12:24;;;;;;;11.27;6.22;;;;;;;7.45;66.92;100621.47;4975891;28;20090;-81
2022/10/17 11:15:56;;;;;;;7.22;5.30;;;;;;;7.21;66.57;100564.97;4962635;28;20609;-81
2022/10/17 11:18:50;;;;;;;8.63;5.88;;;;;;;7.29;66.83;100576.31;4939526;28;20053;-82
2022/10/17 11:26:34;;;;;;;;;;;;;;;;;;;;;
2022/10/17 11:34:03;;;;;;;8.98;6.07;;;;;;;7.96;67.05;100636.97;5010856;28;20047;-81
2022/10/17 11:37:27;;;;;;;8.73;6.03;;;;;;;7.96;67.30;100644.75;5042080;28;20040;-81
2022/10/17 11:40:41;;;;;;;9.65;5.97;;;;;;;7.13;67.22;100515.69;5019111;28;20095;-81
2022/10/17 11:48:37;;;;;;;;;;;;;;;;;;;;;
2022/10/17 11:51:15;;;;;;;12.02;6.50;;;;;;;7.83;67.46;100590.13;5042827;28;20602;-83
2022/10/17 11:58:37;;;;;;;10.10;6.00;;;;;;;8.08;67.42;100628.50;4971029;28;20054;-84
2022/10/17 12:01:32;;;;;;;;;;;;;;;;;;;;;
2022/10/17 12:05:28;;;;;;;;;;;;;;;;;;;;;
2022/10/17 12:09:07;;;;;;;11.80;7.78;;;;;;;7.39;67.69;100528.19;4960937;28;20074;-82
2022/10/17 12:12:17;;;;;;;;;;;;;;;;;;;;;
2022/10/17 12:15:55;;;;;;;;;;;;;;;;;;;;;
2022/10/17 12:28:29;;;;;;;;;;;;;;;;;;;;;
2022/10/17 12:36:43;;;;;;;13.27;7.18;;;;;;;7.58;66.99;100503.41;4848567;29;20053;-81
2022/10/17 12:39:23;;;;;;;13.38;7.38;;;;;;;8.19;68.00;100574.22;4856996;29;20049;-83
2022/10/17 12:42:00;;;;;;;12.45;7.93;;;;;;;7.03;67.89;100390.44;4937360;29;20051;-82
2022/10/17 12:48:37;;;;;;;14.48;7.22;;;;;;;8.28;68.05;100590.75;4889190;29;20050;-80
2022/10/17 12:58:44;;;;;;;13.60;7.43;;;;;;;7.50;68.02;100474.81;4889491;29;20050;-82
2022/10/17 13:01:47;;;;;;;14.70;8.02;;;;;;;7.24;67.96;100438.19;4908283;29;20182;-81
2022/10/17 13:17:41;;;;;;;18.48;8.55;;;;;;;6.99;68.40;100422.28;4837807;29;20052;-86
2022/10/17 13:20:19;;;;;;;14.18;8.40;;;;;;;7.21;68.72;100449.34;4897657;29;20055;-82
2022/10/17 13:22:46;;;;;;;16.10;8.57;;;;;;;8.25;68.69;100620.97;4980913;28;20049;-82
2022/10/17 13:25:54;;;;;;;14.27;8.85;;;;;;;7.49;68.59;100498.97;5023298;28;20117;-81
2022/10/17 13:29:02;;;;;;;18.27;9.00;;;;;;;7.77;68.98;100556.38;5016602;28;20053;-84
2022/10/17 13:32:44;;;;;;;18.83;8.70;;;;;;;8.17;68.84;100640.72;5007099;28;20040;-82
2022/10/17 13:35:55;;;;;;;14.90;8.60;;;;;;;7.31;69.39;100538.38;5033811;28;20080;-80
2022/10/17 13:39:09;;;;;;;16.67;8.55;;;;;;;7.65;69.29;100592.44;5002671;28;20081;-82
2022/10/17 13:41:38;;;;;;;16.92;8.85;;;;;;;8.30;69.24;100704.88;5022812;28;20436;-81
2022/10/17 13:44:21;;;;;;;17.80;9.18;;;;;;;8.32;69.30;100690.22;5052235;28;20063;-81
2022/10/17 13:46:47;;;;;;;18.73;9.40;;;;;;;8.37;69.56;100685.97;5043498;28;20140;-81
2022/10/17 13:49:19;;;;;;;18.60;9.88;;;;;;;7.98;69.33;100605.03;5005179;28;20033;-80
2022/10/17 13:51:48;;;;;;;17.47;9.63;;;;;;;8.26;69.34;100648.66;5013232;28;20455;-81
2022/10/17 13:54:41;;;;;;;20.77;11.40;;;;;;;8.45;69.23;100686.06;5039442;28;20044;-81
2022/10/17 13:57:24;;;;;;;19.55;11.38;;;;;;;8.50;69.30;100681.88;5016453;28;20037;-81
2022/10/17 13:59:54;;;;;;;18.50;9.18;;;;;;;8.08;69.33;100607.78;5039196;28;20075;-83
2022/10/17 14:02:29;;;;;;;19.88;9.55;;;;;;;8.43;69.28;100675.69;5029110;28;20033;-81
2022/10/17 14:05:06;;;;;;;19.42;9.18;;;;;;;8.28;69.43;100637.44;5026121;28;20052;-80
2022/10/17 14:07:49;;;;;;;15.68;8.60;;;;;;;8.53;69.45;100673.25;5060507;28;20458;-82
2022/10/17 14:10:29;;;;;;;15.77;9.68;;;;;;;8.11;69.65;100613.00;5022744;28;20115;-82
2022/10/17 14:13:00;;;;;;;17.25;8.90;;;;;;;8.50;69.45;100674.09;5059792;28;20071;-83
2022/10/17 14:15:34;;;;;;;17.25;8.75;;;;;;;8.29;69.69;100638.28;5035517;28;20076;-81
2022/10/17 14:18:07;;;;;;;16.45;8.88;;;;;;;8.33;69.74;100634.91;5058314;28;20040;-83
2022/10/17 14:20:35;;;;;;;18.60;9.70;;;;;;;8.38;69.48;100635.84;5036123;28;20041;-82
2022/10/17 14:23:02;;;;;;;18.00;8.43;;;;;;;8.04;69.58;100580.94;5027557;28;20045;-83
2022/10/17 14:25:39;;;;;;;14.23;8.55;;;;;;;8.25;69.41;100633.94;5025415;28;20088;-83
2022/10/17 14:28:08;;;;;;;17.45;9.32;;;;;;;8.42;69.71;100650.59;5015415;28;20124;-83
2022/10/17 14:31:14;;;;;;;14.85;8.63;;;;;;;7.42;69.77;100479.00;4992783;28;20515;-83
2022/10/17 14:34:14;;;;;;;15.95;9.38;;;;;;;7.37;69.70;100471.16;5000664;28;20049;-83
2022/10/17 14:37:36;;;;;;;16.08;8.40;;;;;;;8.25;69.74;100645.19;5027155;28;20087;-83
2022/10/17 14:40:05;;;;;;;20.33;9.82;;;;;;;7.50;69.93;100534.38;5026181;28;20707;-83
2022/10/17 14:42:39;;;;;;;24.42;10.48;;;;;;;7.90;70.21;100600.59;5012222;28;20064;-81
2022/10/17 14:45:22;;;;;;;17.08;10.35;;;;;;;7.11;69.99;100472.47;5001661;28;20033;-84
2022/10/17 14:48:30;;;;;;;21.23;9.90;;;;;;;7.03;70.18;100486.19;4962108;28;20090;-82
2022/10/17 14:51:37;;;;;;;17.25;9.07;;;;;;;7.68;70.32;100608.91;4986569;28;20182;-81
2022/10/17 14:54:29;;;;;;;18.15;9.77;;;;;;;7.80;70.54;100634.16;4963076;28;20053;-80
2022/10/17 14:57:51;;;;;;;16.60;9.20;;;;;;;7.70;70.40;100650.38;4978839;28;20144;-82
2022/10/17 15:00:34;;;;;;;20.85;9.77;;;;;;;6.39;70.49;100423.84;4949462;28;20133;-80
2022/10/17 15:03:01;;;;;;;21.77;10.82;;;;;;;6.90;71.30;100542.03;4957527;28;20058;-83
2022/10/17 15:06:14;;;;;;;17.52;9.75;;;;;;;7.47;71.24;100655.19;4978339;28;20037;-86
2022/10/17 15:08:46;;;;;;;22.08;10.27;;;;;;;6.97;70.92;100570.56;4954701;28;20058;-83
2022/10/17 15:11:15;;;;;;;22.33;10.85;;;;;;;7.40;71.68;100646.41;4959709;28;20092;-83
2022/10/17 15:13:41;;;;;;;24.73;10.75;;;;;;;7.05;71.75;100600.06;4986158;28;20054;-84
2022/10/17 15:16:23;;;;;;;19.27;10.88;;;;;;;7.02;71.56;100587.06;4960786;28;20049;-81
2022/10/17 15:18:50;;;;;;;19.92;11.10;;;;;;;7.04;71.95;100562.09;4989314;28;20069;-81
2022/10/17 15:22:35;;;;;;;20.27;10.38;;;;;;;7.63;72.12;100653.72;5021779;28;20051;-82
2022/10/17 15:26:16;;;;;;;20.95;10.27;;;;;;;7.39;71.88;100598.09;5014304;28;20096;-82
2022/10/17 15:28:55;;;;;;;16.67;9.45;;;;;;;6.73;71.89;100484.81;5006048;28;20068;-82
2022/10/17 15:31:26;;;;;;;21.08;10.52;;;;;;;6.81;71.76;100503.03;5009971;28;20481;-83